Local and Regional Airport Weather



KPVE - Beech River Regional Airport
Distance from station: NW 4mi, 6km
Updated: Fri, Jan-19-2018 10:55am CST

 Wind from S
Wind: S 9 mph , 15 km/h
Temperature: 39°F , 4°C
Wind Chill: 33°F , 1°C
Dew Point: 19°F , -7°C
Humidity: 45%
Barometer: 30.30 inHg , 1026.1 hPa
2018/01/19 16:55 KPVE 191655Z AUTO 19008KT 04/M07 A3030 RMK A01 P0002
KSNH - Savannah Hardin Co. Airport
Distance from station: S 34mi, 54km
Updated: Fri, Jan-19-2018 10:55am CST
Clear
Clear
 Wind from SW
Wind: SW 10 mph , 17 km/h
Temperature: 39°F , 4°C
Wind Chill: 32°F , 0°C
Dew Point: 18°F , -8°C
Humidity: 42%
Barometer: 30.32 inHg , 1026.8 hPa
Clouds: Clear
Visibility: 10 miles , 16 km
2018/01/19 16:55 KSNH 191655Z AUTO 23009KT 10SM CLR 04/M08 A3032 RMK A01
 
KMKL - McKellar-Sipes Regional Airport
Distance from station: W 44mi, 72km
Updated: Fri, Jan-19-2018 10:53am CST
Clear
Clear
 Wind from SW
Wind: SW 10 mph , 17 km/h
Temperature: 37°F , 3°C
Wind Chill: 30°F , -1°C
Dew Point: 19°F , -7°C
Humidity: 48%
Barometer: 30.29 inHg , 1025.7 hPa
Clouds: Clear
Visibility: 10 miles , 16 km
2018/01/19 16:53 KMKL 191653Z 22009KT 10SM CLR 03/M07 A3029 RMK AO2 SLP261 T00331072
KMSL - NW Alabama Regional Airport
Distance from station: SE 78mi, 126km
Updated: Fri, Jan-19-2018 10:53am CST
Clear
Clear
 Wind from varies
Wind: varies 3 mph , 6 km/h
Temperature: 39°F , 4°C
Dew Point: 19°F , -7°C
Humidity: 45%
Barometer: 30.35 inHg , 1027.8 hPa
Clouds: Clear
Visibility: 10 miles , 16 km
2018/01/19 16:53 KMSL 191653Z AUTO VRB03KT 10SM CLR 04/M07 A3035 RMK AO2 SLP280 T00391072
 
KBNA - Nashville International Airport
Distance from station: NE 97mi, 157km
Updated: Fri, Jan-19-2018 10:53am CST
Few Clouds
Few Clouds
 Wind from SSW
Wind: SSW 8 mph , 13 km/h
Temperature: 39°F , 4°C
Wind Chill: 33°F , 1°C
Dew Point: 16°F , -9°C
Humidity: 39%
Barometer: 30.31 inHg , 1026.4 hPa
Clouds: Few Clouds
Visibility: 10 miles , 16 km
Cloud details: Few Clouds 25000 ft
2018/01/19 16:53 KBNA 191653Z 21007KT 10SM FEW250 04/M09 A3031 RMK AO2 SLP268 T00391089
KMEM - Memphis International Airport
Distance from station: W 108mi, 173km
Updated: Fri, Jan-19-2018 10:54am CST
Mostly cloudy
Mostly cloudy
 Wind from SSW
Wind: SSW 10 mph , 17 km/h, Gust: 17 mph , 28 km/h
Temperature: 41°F , 5°C
Wind Chill: 35°F , 2°C
Dew Point: 21°F , -6°C
Humidity: 45%
Barometer: 30.30 inHg , 1026.1 hPa
Clouds: Mostly cloudy
Visibility: 10 miles , 16 km
Cloud details: Mostly cloudy 4200 ft
2018/01/19 16:54 KMEM 191654Z 20009G15KT 10SM BKN042 05/M06 A3030 RMK AO2 SLP263 T00501061 $
 
KTYS - Knoxville McGhee Tyson Airport
Distance from station: E 234mi, 377km
Updated: Fri, Jan-19-2018 10:53am CST
Clear
Clear
 Wind from calm
Wind: Calm
Temperature: 34°F , 1°C
Dew Point: 19°F , -7°C
Humidity: 56%
Barometer: 30.32 inHg , 1026.8 hPa
Clouds: Clear
Visibility: 10 miles , 16 km
2018/01/19 16:53 KTYS 191653Z 00000KT 10SM CLR 01/M07 A3032 RMK AO2 SLP275 T00111072
KSTL - St. Louis International Airport
Distance from station: NW 247mi, 398km
Updated: Fri, Jan-19-2018 10:51am CST
Partly cloudy
Partly cloudy
 Wind from SSW
Wind: SSW 13 mph , 20 km/h
Temperature: 45°F , 7°C
Wind Chill: 39°F , 4°C
Dew Point: 16°F , -9°C
Humidity: 31%
Barometer: 30.06 inHg , 1017.9 hPa
Clouds: Partly cloudy
Visibility: 10 miles , 16 km
Cloud details: Partly cloudy 25000 ft
2018/01/19 16:51 KSTL 191651Z 21011KT 10SM SCT250 07/M09 A3006 RMK AO2 SLP185 T00721089

Refresh Page for latest data.